createdAt,value
2018-07-01T00:00:14.839Z,58.90
2018-07-01T00:02:43.004Z,59.00
2018-07-01T00:05:11.749Z,59.50
2018-07-01T00:07:39.955Z,59.80
2018-07-01T00:10:09.204Z,59.80
2018-07-01T00:12:37.644Z,59.70
2018-07-01T00:15:06.154Z,59.80
2018-07-01T00:17:34.502Z,59.80
2018-07-01T00:20:02.711Z,59.60
2018-07-01T00:22:30.900Z,59.90
2018-07-01T00:24:59.094Z,59.70
2018-07-01T00:27:27.263Z,59.80
2018-07-01T00:29:55.450Z,59.80
2018-07-01T00:32:23.641Z,60.00
2018-07-01T00:34:51.828Z,59.80
2018-07-01T00:37:20.050Z,59.90
2018-07-01T00:39:48.242Z,60.40
2018-07-01T00:42:16.415Z,60.50
2018-07-01T00:44:44.610Z,60.30
2018-07-01T00:47:12.818Z,61.00
2018-07-01T00:49:41.016Z,60.60
2018-07-01T00:52:09.222Z,60.90
2018-07-01T00:54:37.449Z,60.90
2018-07-01T00:57:05.692Z,61.00
2018-07-01T00:59:34.053Z,61.20
2018-07-01T01:02:02.244Z,60.80
2018-07-01T01:04:30.442Z,61.10
2018-07-01T01:06:58.664Z,60.70
2018-07-01T01:09:26.869Z,60.80
2018-07-01T01:11:55.047Z,61.00
2018-07-01T01:14:23.260Z,61.50
2018-07-01T01:16:51.456Z,61.20
2018-07-01T01:19:20.515Z,61.20
2018-07-01T01:21:48.722Z,61.60
2018-07-01T01:24:16.926Z,61.70
2018-07-01T01:26:45.138Z,61.60
2018-07-01T01:29:13.345Z,61.80
2018-07-01T01:31:41.554Z,62.60
2018-07-01T01:34:09.753Z,62.00
2018-07-01T01:36:39.316Z,62.00
2018-07-01T01:39:09.711Z,62.10
2018-07-01T01:41:42.152Z,62.00
2018-07-01T01:44:15.284Z,62.10
2018-07-01T01:46:48.692Z,62.30
2018-07-01T01:49:27.686Z,62.40
2018-07-01T01:52:00.400Z,62.50
2018-07-01T01:54:32.454Z,62.80
2018-07-01T01:57:07.396Z,62.90
2018-07-01T01:59:40.972Z,62.50
2018-07-01T02:02:18.288Z,63.30
2018-07-01T02:04:49.656Z,63.40
2018-07-01T02:07:23.102Z,63.40
2018-07-01T02:09:51.313Z,63.40
2018-07-01T02:12:19.508Z,63.50
2018-07-01T02:14:51.997Z,63.50
2018-07-01T02:17:26.956Z,63.50
2018-07-01T02:19:55.139Z,64.10
2018-07-01T02:22:27.544Z,64.50
2018-07-01T02:24:56.813Z,64.30
2018-07-01T02:27:25.007Z,65.00
2018-07-01T02:29:53.219Z,65.20
2018-07-01T02:32:21.418Z,65.50
2018-07-01T02:34:49.591Z,65.70
2018-07-01T02:37:17.770Z,66.00
2018-07-01T02:39:45.965Z,66.30
2018-07-01T02:42:14.134Z,66.20
2018-07-01T02:44:42.334Z,67.20
2018-07-01T02:47:10.543Z,66.90
2018-07-01T02:49:38.717Z,66.50
2018-07-01T02:52:06.920Z,66.30
2018-07-01T02:54:35.168Z,66.50
2018-07-01T02:57:03.360Z,66.80
2018-07-01T02:59:31.539Z,67.00
2018-07-01T03:01:59.794Z,67.20
2018-07-01T03:04:27.969Z,67.50
2018-07-01T03:06:56.170Z,67.40
2018-07-01T03:09:24.367Z,67.60
2018-07-01T03:11:52.552Z,67.70
2018-07-01T03:14:20.752Z,67.70
2018-07-01T03:19:16.963Z,67.70
2018-07-01T03:21:45.105Z,68.10
2018-07-01T03:24:13.300Z,68.10
2018-07-01T03:26:41.478Z,68.00
2018-07-01T03:29:09.676Z,68.10
2018-07-01T03:31:37.882Z,68.20
2018-07-01T03:34:06.076Z,68.60
2018-07-01T03:36:34.270Z,68.80
2018-07-01T03:39:02.485Z,68.80
2018-07-01T03:41:30.663Z,69.50
2018-07-01T03:43:58.846Z,69.50
2018-07-01T03:46:27.133Z,69.80
2018-07-01T03:48:55.338Z,69.80
2018-07-01T03:51:23.527Z,70.20
2018-07-01T03:53:51.856Z,70.40
2018-07-01T03:56:20.055Z,70.00
2018-07-01T03:58:48.241Z,70.20
2018-07-01T04:01:16.472Z,70.00
2018-07-01T04:03:44.691Z,70.50
2018-07-01T04:06:12.906Z,70.00
2018-07-01T04:08:41.129Z,71.00
2018-07-01T04:11:09.301Z,70.40
2018-07-01T04:13:37.495Z,70.90
2018-07-01T04:16:05.701Z,70.70
2018-07-01T04:18:33.906Z,70.80
2018-07-01T04:21:02.100Z,71.00
2018-07-01T04:23:30.316Z,70.50
2018-07-01T04:25:58.494Z,70.30
2018-07-01T04:28:26.693Z,70.40
2018-07-01T04:30:54.955Z,70.70
2018-07-01T04:33:23.090Z,70.40
2018-07-01T04:35:51.309Z,70.40
2018-07-01T04:38:19.489Z,70.60
2018-07-01T04:40:47.683Z,70.80
2018-07-01T04:43:15.882Z,70.60
2018-07-01T04:45:44.091Z,70.70
2018-07-01T04:48:12.342Z,70.60
2018-07-01T04:50:40.538Z,71.10
2018-07-01T04:53:08.751Z,70.90
2018-07-01T04:55:36.938Z,71.60
2018-07-01T04:58:05.400Z,71.80
2018-07-01T05:00:33.598Z,71.40
2018-07-01T05:03:01.791Z,71.60
2018-07-01T05:05:29.976Z,72.00
2018-07-01T05:07:58.252Z,72.10
2018-07-01T05:10:26.498Z,72.00
2018-07-01T05:12:54.720Z,71.30
2018-07-01T05:15:22.955Z,71.90
2018-07-01T05:17:51.142Z,71.60
2018-07-01T05:20:19.358Z,71.90
2018-07-01T05:22:47.557Z,71.40
2018-07-01T05:25:15.746Z,71.60
2018-07-01T05:27:44.227Z,71.40
2018-07-01T05:30:12.438Z,71.70
2018-07-01T05:32:40.617Z,71.40
2018-07-01T05:37:36.782Z,71.20
2018-07-01T05:40:04.969Z,70.50
2018-07-01T05:42:33.177Z,70.80
2018-07-01T05:45:01.399Z,70.00
2018-07-01T05:49:57.535Z,69.00
2018-07-01T05:52:25.740Z,68.90
2018-07-01T05:54:53.945Z,69.00
2018-07-01T05:57:22.192Z,69.10
2018-07-01T05:59:50.370Z,69.20
2018-07-01T06:02:18.587Z,68.10
2018-07-01T06:04:46.797Z,67.60
2018-07-01T06:07:14.992Z,66.80
2018-07-01T06:09:43.197Z,67.10
2018-07-01T06:12:11.418Z,66.20
2018-07-01T06:14:39.599Z,65.90
2018-07-01T06:17:07.824Z,66.30
2018-07-01T06:19:36.028Z,65.20
2018-07-01T06:22:04.241Z,65.00
2018-07-01T06:24:32.498Z,65.00
2018-07-01T06:27:00.666Z,64.10
2018-07-01T06:29:28.874Z,64.70
2018-07-01T06:31:57.063Z,62.90
2018-07-01T06:34:25.276Z,62.70
2018-07-01T06:36:53.486Z,60.80
2018-07-01T06:39:21.726Z,60.70
2018-07-01T06:41:49.912Z,59.40
2018-07-01T06:44:18.085Z,60.00
2018-07-01T06:46:46.292Z,60.10
2018-07-01T06:49:14.494Z,58.40
2018-07-01T06:51:42.709Z,58.60
2018-07-01T06:54:10.945Z,58.30
2018-07-01T06:56:39.136Z,55.50
2018-07-01T06:59:07.378Z,56.10
2018-07-01T07:01:35.594Z,53.90
2018-07-01T07:04:03.790Z,54.40
2018-07-01T07:06:32.504Z,53.20
2018-07-01T07:09:00.722Z,52.40
2018-07-01T07:11:28.971Z,51.90
2018-07-01T07:13:57.210Z,50.80
2018-07-01T07:16:25.436Z,47.00
2018-07-01T07:18:53.643Z,46.70
2018-07-01T07:21:21.920Z,45.20
2018-07-01T07:23:50.125Z,44.50
2018-07-01T07:26:18.353Z,42.70
2018-07-01T07:28:46.584Z,42.50
2018-07-01T07:31:14.793Z,42.50
2018-07-01T07:33:43.013Z,39.80
2018-07-01T07:36:11.240Z,38.90
2018-07-01T07:38:39.395Z,37.80
2018-07-01T07:41:07.600Z,38.70
2018-07-01T07:43:35.874Z,38.60
2018-07-01T07:46:04.097Z,37.70
2018-07-01T07:48:32.287Z,35.80
2018-07-01T07:51:00.520Z,36.80
2018-07-01T07:53:28.746Z,36.70
2018-07-01T07:55:56.953Z,34.80
2018-07-01T07:58:25.187Z,28.80
2018-07-01T08:00:53.398Z,25.60
2018-07-01T08:05:49.936Z,21.80
2018-07-01T08:08:18.165Z,19.90
2018-07-01T08:10:46.376Z,18.10
2018-07-01T08:13:14.600Z,18.10
2018-07-01T08:15:42.823Z,17.70
2018-07-01T08:18:11.042Z,17.80
2018-07-01T08:20:39.221Z,17.70
2018-07-01T08:23:07.441Z,17.10
2018-07-01T08:25:35.645Z,17.40
2018-07-01T08:28:03.821Z,16.90
2018-07-01T08:30:32.032Z,16.60
2018-07-01T08:33:00.222Z,17.00
2018-07-01T08:37:56.434Z,16.90
2018-07-01T08:40:24.616Z,16.60
2018-07-01T08:42:52.845Z,16.80
2018-07-01T08:47:48.972Z,16.90
2018-07-01T08:50:17.183Z,17.20
2018-07-01T08:52:45.471Z,17.40
2018-07-01T08:55:13.549Z,17.20
2018-07-01T08:57:41.758Z,17.00
2018-07-01T09:00:09.952Z,17.60
2018-07-01T09:02:38.180Z,18.30
2018-07-01T09:05:06.434Z,18.30
2018-07-01T09:07:34.614Z,17.40
2018-07-01T09:10:02.811Z,18.00
2018-07-01T09:12:30.989Z,18.10
2018-07-01T09:14:59.196Z,17.60
2018-07-01T09:17:27.382Z,17.70
2018-07-01T09:19:55.584Z,17.80
2018-07-01T09:22:23.756Z,17.60
2018-07-01T09:24:51.966Z,18.60
2018-07-01T09:27:20.166Z,19.10
2018-07-01T09:32:21.925Z,19.00
2018-07-01T09:34:50.121Z,19.00
2018-07-01T09:39:46.248Z,19.30
2018-07-01T09:42:14.474Z,19.10
2018-07-01T09:44:42.666Z,19.40
2018-07-01T09:47:10.869Z,19.20
2018-07-01T09:49:39.021Z,18.80
2018-07-01T09:52:07.221Z,18.40
2018-07-01T09:54:35.413Z,18.60
2018-07-01T09:57:03.683Z,18.60
2018-07-01T09:59:31.986Z,18.50
2018-07-01T10:02:00.219Z,18.10
2018-07-01T10:04:28.495Z,19.30
2018-07-01T10:06:57.273Z,19.40
2018-07-01T10:09:25.800Z,19.40
2018-07-01T10:11:53.992Z,19.70
2018-07-01T10:14:22.076Z,19.70
2018-07-01T10:16:50.272Z,19.70
2018-07-01T10:19:18.406Z,20.60
2018-07-01T10:21:46.584Z,22.10
2018-07-01T10:24:14.712Z,20.20
2018-07-01T10:26:42.838Z,22.00
2018-07-01T10:29:12.006Z,19.40
2018-07-01T10:31:40.827Z,21.60
2018-07-01T10:34:09.984Z,21.20
2018-07-01T10:36:38.155Z,19.10
2018-07-01T10:39:14.451Z,19.40
2018-07-01T10:41:42.874Z,20.30
2018-07-01T10:44:11.112Z,20.90
2018-07-01T10:46:39.307Z,19.40
2018-07-01T10:49:07.536Z,18.30
2018-07-01T10:51:36.016Z,19.40
2018-07-01T10:54:04.169Z,19.00
2018-07-01T10:56:32.337Z,19.10
2018-07-01T10:59:00.614Z,19.90
2018-07-01T11:01:28.780Z,20.90
2018-07-01T11:03:56.978Z,21.30
2018-07-01T11:06:25.168Z,21.40
2018-07-01T11:08:53.330Z,20.40
2018-07-01T11:11:21.500Z,21.00
2018-07-01T11:13:49.662Z,21.00
2018-07-01T11:18:45.744Z,22.10
2018-07-01T11:21:13.897Z,21.90
2018-07-01T11:23:42.057Z,22.30
2018-07-01T11:26:10.237Z,23.00
2018-07-01T11:28:38.436Z,23.30
2018-07-01T11:31:06.612Z,23.50
2018-07-01T11:33:34.748Z,23.10
2018-07-01T11:36:02.906Z,23.10
2018-07-01T11:38:31.067Z,23.50
2018-07-01T11:40:59.349Z,23.40
2018-07-01T11:43:27.561Z,23.70
2018-07-01T11:45:55.740Z,23.40
2018-07-01T11:48:23.889Z,23.90
2018-07-01T11:50:52.071Z,23.50
2018-07-01T11:53:20.227Z,23.40
2018-07-01T11:55:48.397Z,23.00
2018-07-01T11:58:16.627Z,23.50
2018-07-01T12:00:44.798Z,23.60
2018-07-01T12:03:12.958Z,23.70
2018-07-01T12:05:41.142Z,24.10
2018-07-01T12:08:09.315Z,24.30
2018-07-01T12:10:37.484Z,24.70
2018-07-01T12:13:05.652Z,23.90
2018-07-01T12:15:33.866Z,24.60
2018-07-01T12:18:02.049Z,23.90
2018-07-01T12:20:30.942Z,24.50
2018-07-01T12:22:59.844Z,23.90
2018-07-01T12:25:28.016Z,23.90
2018-07-01T12:27:56.239Z,23.90
2018-07-01T12:30:24.420Z,25.10
2018-07-01T12:32:52.641Z,23.80
2018-07-01T12:35:20.906Z,25.10
2018-07-01T12:37:49.072Z,24.30
2018-07-01T12:40:17.282Z,25.20
2018-07-01T12:42:45.486Z,25.50
2018-07-01T12:45:13.646Z,24.20
2018-07-01T12:47:41.870Z,24.10
2018-07-01T12:50:10.209Z,23.50
2018-07-01T12:52:38.429Z,23.80
2018-07-01T12:55:06.591Z,23.90
2018-07-01T12:57:34.744Z,24.00
2018-07-01T13:00:02.912Z,23.80
2018-07-01T13:02:31.126Z,24.30
2018-07-01T13:04:59.255Z,24.70
2018-07-01T13:07:27.455Z,24.80
2018-07-01T13:09:56.142Z,25.00
2018-07-01T13:12:24.321Z,25.10
2018-07-01T13:14:52.478Z,25.90
2018-07-01T13:17:20.657Z,25.40
2018-07-01T13:19:48.817Z,25.30
2018-07-01T13:22:16.966Z,24.90
2018-07-01T13:24:45.169Z,25.40
2018-07-01T13:27:13.329Z,25.10
2018-07-01T13:29:41.498Z,25.30
2018-07-01T13:32:09.701Z,25.20
2018-07-01T13:34:38.165Z,25.10
2018-07-01T13:37:06.541Z,26.10
2018-07-01T13:39:34.803Z,25.60
2018-07-01T13:42:02.970Z,26.20
2018-07-01T13:44:31.137Z,25.30
2018-07-01T13:46:59.309Z,24.80
2018-07-01T13:49:27.501Z,25.60
2018-07-01T13:51:55.654Z,25.80
2018-07-01T13:54:23.827Z,25.90
2018-07-01T13:56:51.989Z,26.50
2018-07-01T13:59:20.151Z,26.40
2018-07-01T14:01:48.420Z,26.00
2018-07-01T14:04:16.475Z,27.00
2018-07-01T14:06:44.685Z,27.30
2018-07-01T14:09:13.192Z,26.70
2018-07-01T14:11:41.374Z,26.60
2018-07-01T14:14:09.681Z,25.90
2018-07-01T14:16:38.140Z,26.20
2018-07-01T14:19:06.339Z,27.10
2018-07-01T14:21:34.520Z,27.10
2018-07-01T14:24:02.698Z,26.80
2018-07-01T14:26:30.866Z,26.60
2018-07-01T14:28:59.024Z,25.90
2018-07-01T14:31:27.175Z,26.80
2018-07-01T14:33:55.346Z,26.90
2018-07-01T14:36:23.504Z,26.80
2018-07-01T14:38:51.776Z,26.40
2018-07-01T14:41:19.949Z,27.40
2018-07-01T14:43:48.113Z,27.20
2018-07-01T14:46:16.353Z,27.00
2018-07-01T14:48:44.632Z,26.30
2018-07-01T14:51:12.821Z,26.60
2018-07-01T14:53:41.025Z,27.40
2018-07-01T14:56:09.265Z,27.40
2018-07-01T14:58:37.445Z,26.90
2018-07-01T15:01:05.716Z,27.00
2018-07-01T15:03:33.883Z,27.00
2018-07-01T15:06:04.040Z,26.30
2018-07-01T15:08:32.219Z,27.40
2018-07-01T15:11:00.412Z,26.60
2018-07-01T15:13:29.385Z,26.90
2018-07-01T15:15:57.789Z,26.80
2018-07-01T15:18:25.973Z,27.70
2018-07-01T15:20:54.380Z,26.90
2018-07-01T15:23:22.629Z,27.10
2018-07-01T15:25:50.792Z,26.90
2018-07-01T15:28:19.000Z,27.50
2018-07-01T15:30:47.166Z,27.40
2018-07-01T15:33:15.362Z,27.10
2018-07-01T15:35:43.764Z,27.10
2018-07-01T15:38:11.917Z,27.00
2018-07-01T15:40:40.113Z,27.60
2018-07-01T15:43:08.328Z,26.90
2018-07-01T15:45:36.582Z,27.20
2018-07-01T15:48:04.757Z,27.40
2018-07-01T15:50:32.911Z,28.00
2018-07-01T15:53:01.092Z,28.20
2018-07-01T15:55:29.253Z,27.60
2018-07-01T15:57:57.415Z,28.00
2018-07-01T16:00:25.573Z,27.70
2018-07-01T16:02:53.807Z,27.80
2018-07-01T16:05:21.963Z,27.30
2018-07-01T16:07:50.155Z,27.30
2018-07-01T16:10:18.401Z,27.10
2018-07-01T16:12:46.595Z,28.40
2018-07-01T16:15:14.733Z,27.60
2018-07-01T16:17:42.989Z,27.60
2018-07-01T16:20:11.082Z,27.90
2018-07-01T16:22:40.952Z,28.30
2018-07-01T16:25:14.454Z,28.50
2018-07-01T16:27:46.874Z,27.70
2018-07-01T16:30:15.090Z,27.70
2018-07-01T16:32:43.262Z,28.10
2018-07-01T16:35:11.413Z,28.60
2018-07-01T16:37:39.616Z,28.20
2018-07-01T16:40:07.778Z,28.00
2018-07-01T16:42:35.998Z,28.10
2018-07-01T16:45:04.391Z,29.50
2018-07-01T16:47:32.565Z,28.80
2018-07-01T16:50:00.759Z,28.60
2018-07-01T16:52:29.472Z,28.10
2018-07-01T16:54:57.617Z,28.10
2018-07-01T16:57:25.787Z,28.30
2018-07-01T16:59:53.951Z,29.30
2018-07-01T17:04:50.012Z,28.20
2018-07-01T17:07:18.324Z,28.70
2018-07-01T17:09:46.517Z,28.70
2018-07-01T17:12:14.650Z,28.40
2018-07-01T17:14:42.786Z,28.60
2018-07-01T17:17:10.949Z,29.80
2018-07-01T17:19:39.106Z,28.80
2018-07-01T17:22:21.107Z,28.90
2018-07-01T17:24:49.191Z,28.60
2018-07-01T17:27:17.383Z,28.70
2018-07-01T17:29:45.545Z,29.00
2018-07-01T17:32:19.090Z,29.10
2018-07-01T17:34:47.876Z,29.10
2018-07-01T17:37:16.048Z,29.30
2018-07-01T17:39:44.234Z,29.50
2018-07-01T17:44:40.326Z,29.50
2018-07-01T17:47:08.489Z,29.30
2018-07-01T17:49:36.696Z,29.10
2018-07-01T17:52:04.832Z,29.10
2018-07-01T17:54:33.032Z,29.20
2018-07-01T17:57:01.185Z,29.50
2018-07-01T17:59:29.381Z,29.10
2018-07-01T18:01:57.546Z,29.40
2018-07-01T18:04:25.659Z,30.10
2018-07-01T18:06:53.881Z,34.70
2018-07-01T18:09:22.212Z,36.10
2018-07-01T18:11:50.308Z,33.70
2018-07-01T18:14:18.427Z,30.80
2018-07-01T18:16:46.576Z,30.50
2018-07-01T18:19:14.705Z,31.80
2018-07-01T18:24:35.144Z,32.20
2018-07-01T18:26:41.053Z,32.00
2018-07-01T18:29:15.299Z,36.10
2018-07-01T18:31:37.324Z,34.40
2018-07-01T18:34:05.470Z,32.20
2018-07-01T18:36:33.658Z,34.00
2018-07-01T18:39:01.837Z,32.90
2018-07-01T18:41:30.142Z,33.50
2018-07-01T18:43:58.859Z,35.80
2018-07-01T18:46:29.024Z,34.30
2018-07-01T18:48:57.426Z,36.00
2018-07-01T18:51:26.047Z,35.30
2018-07-01T18:53:54.251Z,34.60
2018-07-01T18:56:22.493Z,33.70
2018-07-01T19:01:18.802Z,38.00
2018-07-01T19:03:47.219Z,37.60
2018-07-01T19:06:17.932Z,36.10
2018-07-01T19:08:46.101Z,36.20
2018-07-01T19:11:15.572Z,35.20
2018-07-01T19:13:43.716Z,35.90
2018-07-01T19:16:11.868Z,35.10
2018-07-01T19:18:40.073Z,35.10
2018-07-01T19:21:09.162Z,37.00
2018-07-01T19:23:37.795Z,36.80
2018-07-01T19:26:06.137Z,35.10
2018-07-01T19:28:34.304Z,35.10
2018-07-01T19:31:02.533Z,35.50
2018-07-01T19:33:30.704Z,33.30
2018-07-01T19:35:58.868Z,33.90
2018-07-01T19:38:27.038Z,35.60
2018-07-01T19:40:55.210Z,34.00
2018-07-01T19:43:23.441Z,35.10
2018-07-01T19:45:51.581Z,35.00
2018-07-01T19:48:19.741Z,34.90
2018-07-01T19:50:47.895Z,35.90
2018-07-01T19:53:16.614Z,36.00
2018-07-01T19:55:44.780Z,36.80
2018-07-01T19:58:12.953Z,36.80
2018-07-01T20:00:41.153Z,37.60
2018-07-01T20:03:09.681Z,37.40
2018-07-01T20:05:37.887Z,38.10
2018-07-01T20:08:06.537Z,37.80
2018-07-01T20:10:35.033Z,38.40
2018-07-01T20:13:03.412Z,38.60
2018-07-01T20:17:59.725Z,38.20
2018-07-01T20:20:27.996Z,38.80
2018-07-01T20:22:56.167Z,39.80
2018-07-01T20:25:24.354Z,39.40
2018-07-01T20:27:52.520Z,39.80
2018-07-01T20:30:20.709Z,39.60
2018-07-01T20:32:48.872Z,40.20
2018-07-01T20:35:17.044Z,39.90
2018-07-01T20:37:45.249Z,40.00
2018-07-01T20:40:13.436Z,39.70
2018-07-01T20:42:41.631Z,40.50
2018-07-01T20:45:09.560Z,40.10
2018-07-01T20:47:37.752Z,40.50
2018-07-01T20:50:06.032Z,41.00
2018-07-01T20:52:34.214Z,40.70
2018-07-01T20:55:02.891Z,41.20
2018-07-01T20:57:31.041Z,41.60
2018-07-01T21:02:27.161Z,41.70
2018-07-01T21:04:55.330Z,42.00
2018-07-01T21:07:23.512Z,41.90
2018-07-01T21:09:51.677Z,42.20
2018-07-01T21:12:19.853Z,42.70
2018-07-01T21:14:48.043Z,43.20
2018-07-01T21:17:16.229Z,43.00
2018-07-01T21:19:44.449Z,43.60
2018-07-01T21:22:12.573Z,43.50
2018-07-01T21:24:40.757Z,44.10
2018-07-01T21:27:08.930Z,44.40
2018-07-01T21:29:37.134Z,44.90
2018-07-01T21:32:05.478Z,45.10
2018-07-01T21:34:33.643Z,45.00
2018-07-01T21:37:01.832Z,45.20
2018-07-01T21:39:30.031Z,44.80
2018-07-01T21:41:58.247Z,45.10
2018-07-01T21:44:26.403Z,45.70
2018-07-01T21:46:54.585Z,45.90
2018-07-01T21:49:22.773Z,46.00
2018-07-01T21:51:50.977Z,46.30
2018-07-01T21:54:19.178Z,46.70
2018-07-01T21:56:47.341Z,47.00
2018-07-01T21:59:15.516Z,46.80
2018-07-01T22:01:43.695Z,46.80
2018-07-01T22:04:11.850Z,47.00
2018-07-01T22:06:45.435Z,47.00
2018-07-01T22:09:13.836Z,47.80
2018-07-01T22:11:54.605Z,47.90
2018-07-01T22:14:41.554Z,48.30
2018-07-01T22:17:11.428Z,48.20
2018-07-01T22:19:39.913Z,48.40
2018-07-01T22:22:08.165Z,48.80
2018-07-01T22:24:37.392Z,48.80
2018-07-01T22:27:05.723Z,50.00
2018-07-01T22:29:34.053Z,49.40
2018-07-01T22:32:02.400Z,49.80
2018-07-01T22:34:30.557Z,49.70
2018-07-01T22:36:58.749Z,49.90
2018-07-01T22:39:28.827Z,49.80
2018-07-01T22:44:25.841Z,50.30
2018-07-01T22:46:54.541Z,51.00
2018-07-01T22:49:22.733Z,50.40
2018-07-01T22:51:50.885Z,51.00
2018-07-01T22:54:19.143Z,51.10
2018-07-01T22:56:47.319Z,51.60
2018-07-01T22:59:15.495Z,51.80
2018-07-01T23:01:55.079Z,51.70
2018-07-01T23:04:23.217Z,52.00
2018-07-01T23:06:51.402Z,52.30
2018-07-01T23:09:19.914Z,52.20
2018-07-01T23:11:48.062Z,52.30
2018-07-01T23:14:16.234Z,52.60
2018-07-01T23:19:12.392Z,52.70
2018-07-01T23:21:40.581Z,52.80
2018-07-01T23:24:08.760Z,53.40
2018-07-01T23:26:36.953Z,52.90
2018-07-01T23:29:05.131Z,52.90
2018-07-01T23:31:33.344Z,52.70
2018-07-01T23:34:01.573Z,53.10
2018-07-01T23:36:29.748Z,53.10
2018-07-01T23:38:57.936Z,53.40
2018-07-01T23:41:26.118Z,53.70
2018-07-01T23:43:54.324Z,53.60
2018-07-01T23:46:22.526Z,54.00
2018-07-01T23:48:50.695Z,54.30
2018-07-01T23:51:18.820Z,54.00
2018-07-01T23:53:47.050Z,54.10
2018-07-01T23:56:15.218Z,54.70
2018-07-01T23:58:43.357Z,54.80
